Terminal Aerodrome Forecast
Issued by NWS

Home | Current Version | Previous Version | Graphics & Text | Print | Product List | Glossary On
Versions: 1 2 3 4 5 6 7 8 9 10 11 12 13 14 15
000
FTUS43 KICT 231728
TAFRSL
TAF
KRSL 231728Z 2318/2418 34029G41KT P6SM -RA SCT025 BKN045
      TEMPO 2318/2322 BKN025
     FM232200 34025G33KT P6SM SCT060 BKN100
     FM240200 32016G23KT P6SM SCT040=

USA.gov is the U.S. government's official web portal to all federal, state and local government web resources and services.